Time;durP1;ratioP1;P1;durP2;ratioP2;P2;SDS_P1;SDS_P2;PMS_P1;PMS_P2;Temp;Humidity;BMP_temperature;BMP_pressure;BME280_temperature;BME280_humidity;BME280_pressure;Samples;Min_cycle;Max_cycle;Signal;HPM_P1;HPM_P2
2023/06/19 00:01:59;;;;;;;11.65;7.97;;;;;;;;;;4999739;28;20110;-74
2023/06/19 00:04:26;;;;;;;12.05;8.13;;;;;;;;;;5001907;28;21964;-75
2023/06/19 00:06:52;;;;;;;10.60;7.97;;;;;;;;;;5008899;28;20105;-76
2023/06/19 00:09:19;;;;;;;13.73;7.88;;;;;;;;;;5004482;28;20069;-75
2023/06/19 00:11:45;;;;;;;9.00;7.40;;;;;;;;;;4993736;28;20408;-75
2023/06/19 00:14:11;;;;;;;10.25;7.40;;;;;;;;;;5016747;28;20407;-75
2023/06/19 00:16:37;;;;;;;11.63;8.00;;;;;;;;;;5019418;28;20196;-75
2023/06/19 00:19:03;;;;;;;10.38;8.00;;;;;;;;;;5019110;28;20042;-75
2023/06/19 00:21:30;;;;;;;9.85;7.93;;;;;;;;;;5019376;28;20095;-75
2023/06/19 00:23:56;;;;;;;13.55;8.02;;;;;;;;;;5013202;28;20046;-75
2023/06/19 00:26:23;;;;;;;10.85;8.20;;;;;;;;;;4999654;28;20042;-74
2023/06/19 00:28:49;;;;;;;11.98;7.55;;;;;;;;;;4999447;28;20232;-74
2023/06/19 00:31:16;;;;;;;12.02;7.75;;;;;;;;;;4999521;28;20116;-75
2023/06/19 00:33:42;;;;;;;9.80;7.80;;;;;;;;;;4999459;28;20061;-75
2023/06/19 00:36:12;;;;;;;9.32;7.75;;;;;;;;;;5005050;28;20033;-75
2023/06/19 00:38:41;;;;;;;14.27;8.02;;;;;;;;;;5019353;28;20400;-75
2023/06/19 00:41:07;;;;;;;10.75;7.47;;;;;;;;;;5020203;28;20449;-75
2023/06/19 00:43:33;;;;;;;9.15;7.30;;;;;;;;;;5006550;28;20069;-75
2023/06/19 00:45:59;;;;;;;13.02;8.07;;;;;;;;;;4999787;28;20417;-74
2023/06/19 00:48:28;;;;;;;10.68;7.57;;;;;;;;;;5012776;28;20080;-75
2023/06/19 00:50:54;;;;;;;10.35;7.43;;;;;;;;;;4999148;28;20047;-75
2023/06/19 00:53:21;;;;;;;15.10;7.47;;;;;;;;;;5012065;28;20046;-75
2023/06/19 00:55:48;;;;;;;9.68;7.18;;;;;;;;;;4999327;28;20082;-75
2023/06/19 00:58:14;;;;;;;11.75;7.68;;;;;;;;;;5007830;28;20081;-74
2023/06/19 01:00:40;;;;;;;9.80;7.32;;;;;;;;;;5002174;28;20068;-73
2023/06/19 01:03:06;;;;;;;9.75;7.68;;;;;;;;;;5008166;28;20043;-74
2023/06/19 01:05:33;;;;;;;9.85;7.38;;;;;;;;;;4998394;28;20057;-74
2023/06/19 01:08:15;;;;;;;9.27;7.32;;;;;;;;;;5009360;28;20046;-74
2023/06/19 01:10:44;;;;;;;10.05;7.85;;;;;;;;;;5005900;28;20057;-74
2023/06/19 01:13:17;;;;;;;9.20;7.43;;;;;;;;;;5002837;28;20050;-75
2023/06/19 01:15:44;;;;;;;9.77;7.03;;;;;;;;;;5018676;28;20049;-75
2023/06/19 01:18:14;;;;;;;9.23;6.78;;;;;;;;;;5004354;28;20050;-76
2023/06/19 01:20:40;;;;;;;9.63;7.00;;;;;;;;;;4998425;28;20048;-75
2023/06/19 01:23:09;;;;;;;8.63;7.15;;;;;;;;;;4997270;28;20050;-76
2023/06/19 01:25:35;;;;;;;9.48;6.70;;;;;;;;;;4998970;28;20043;-75
2023/06/19 01:28:04;;;;;;;10.88;7.40;;;;;;;;;;5006475;28;20521;-74
2023/06/19 01:30:30;;;;;;;9.68;7.45;;;;;;;;;;4997351;28;20104;-75
2023/06/19 01:32:59;;;;;;;9.82;6.90;;;;;;;;;;5017382;28;20049;-75
2023/06/19 01:35:28;;;;;;;11.93;6.95;;;;;;;;;;4999170;28;20046;-74
2023/06/19 01:37:55;;;;;;;12.73;7.47;;;;;;;;;;4998671;28;20121;-74
2023/06/19 01:40:24;;;;;;;10.15;7.25;;;;;;;;;;4999548;28;20047;-75
2023/06/19 01:42:51;;;;;;;9.75;7.15;;;;;;;;;;4999969;28;20121;-74
2023/06/19 01:45:17;;;;;;;10.88;7.30;;;;;;;;;;4997879;28;20049;-75
2023/06/19 01:47:44;;;;;;;10.18;7.75;;;;;;;;;;5001572;28;20053;-74
2023/06/19 01:50:11;;;;;;;8.80;7.22;;;;;;;;;;5016869;28;20064;-74
2023/06/19 01:52:39;;;;;;;10.48;7.22;;;;;;;;;;5012716;28;20481;-76
2023/06/19 01:55:05;;;;;;;9.13;7.78;;;;;;;;;;4996631;28;20098;-75
2023/06/19 01:57:31;;;;;;;9.68;7.43;;;;;;;;;;4998616;28;20042;-75
2023/06/19 01:59:57;;;;;;;10.32;7.53;;;;;;;;;;5000868;28;20058;-74
2023/06/19 02:02:23;;;;;;;9.70;7.35;;;;;;;;;;5002755;28;20106;-74
2023/06/19 02:04:50;;;;;;;8.55;7.00;;;;;;;;;;5000428;28;20042;-75
2023/06/19 02:07:16;;;;;;;10.48;7.40;;;;;;;;;;5002524;28;20488;-76
2023/06/19 02:09:42;;;;;;;10.55;7.75;;;;;;;;;;5001390;28;20035;-75
2023/06/19 02:12:08;;;;;;;10.07;7.63;;;;;;;;;;5003361;28;20800;-75
2023/06/19 02:14:34;;;;;;;8.48;6.88;;;;;;;;;;5000354;28;20129;-75
2023/06/19 02:17:01;;;;;;;9.40;7.60;;;;;;;;;;4998544;28;20046;-75
2023/06/19 02:19:27;;;;;;;10.38;7.50;;;;;;;;;;5019503;28;20042;-75
2023/06/19 02:21:53;;;;;;;11.63;7.57;;;;;;;;;;5019842;28;20047;-75
2023/06/19 02:24:19;;;;;;;10.18;7.88;;;;;;;;;;5016649;28;20042;-75
2023/06/19 02:26:45;;;;;;;9.23;7.40;;;;;;;;;;5017331;28;20092;-75
2023/06/19 02:29:11;;;;;;;8.82;7.22;;;;;;;;;;5017320;28;20034;-75
2023/06/19 02:31:37;;;;;;;8.70;7.47;;;;;;;;;;5021274;28;20042;-75
2023/06/19 02:34:03;;;;;;;10.43;7.68;;;;;;;;;;5020366;28;20046;-75
2023/06/19 02:36:30;;;;;;;10.68;8.07;;;;;;;;;;5002349;28;20109;-75
2023/06/19 02:38:56;;;;;;;9.85;7.72;;;;;;;;;;5012886;28;20050;-75
2023/06/19 02:41:22;;;;;;;10.63;7.50;;;;;;;;;;5017475;28;20496;-75
2023/06/19 02:43:51;;;;;;;9.45;7.38;;;;;;;;;;4999262;28;20404;-75
2023/06/19 02:46:17;;;;;;;9.40;7.22;;;;;;;;;;5004868;28;20046;-75
2023/06/19 02:48:43;;;;;;;9.30;8.02;;;;;;;;;;4999942;28;20176;-75
2023/06/19 02:51:09;;;;;;;9.27;7.55;;;;;;;;;;4999716;28;20054;-76
2023/06/19 02:53:35;;;;;;;11.52;7.90;;;;;;;;;;5009679;28;20112;-75
2023/06/19 02:56:02;;;;;;;9.52;7.10;;;;;;;;;;5020137;28;20050;-75
2023/06/19 02:58:28;;;;;;;9.32;7.40;;;;;;;;;;5017276;28;20065;-75
2023/06/19 03:00:54;;;;;;;8.50;7.00;;;;;;;;;;5001130;28;20042;-75
2023/06/19 03:03:20;;;;;;;9.05;7.28;;;;;;;;;;5008493;28;20080;-75
2023/06/19 03:05:46;;;;;;;10.32;7.53;;;;;;;;;;5001522;28;20058;-76
2023/06/19 03:08:12;;;;;;;10.20;7.65;;;;;;;;;;5001756;28;20069;-75
2023/06/19 03:10:38;;;;;;;9.90;7.38;;;;;;;;;;4999752;28;20042;-75
2023/06/19 03:13:04;;;;;;;9.25;7.60;;;;;;;;;;4998062;28;20046;-75
2023/06/19 03:15:30;;;;;;;9.05;7.22;;;;;;;;;;4998046;28;20125;-75
2023/06/19 03:17:56;;;;;;;9.65;7.18;;;;;;;;;;5014525;28;20133;-75
2023/06/19 03:20:22;;;;;;;9.85;7.25;;;;;;;;;;5009987;28;20070;-75
2023/06/19 03:22:49;;;;;;;11.05;7.68;;;;;;;;;;4999170;28;20046;-74
2023/06/19 03:25:19;;;;;;;10.40;7.68;;;;;;;;;;5014425;28;20057;-75
2023/06/19 03:27:45;;;;;;;11.98;7.30;;;;;;;;;;5008687;28;20045;-75
2023/06/19 03:30:13;;;;;;;11.18;7.78;;;;;;;;;;4999943;28;20050;-75
2023/06/19 03:32:39;;;;;;;9.27;7.15;;;;;;;;;;5001405;28;20069;-74
2023/06/19 03:35:05;;;;;;;11.07;7.40;;;;;;;;;;4999301;28;20054;-75
2023/06/19 03:37:32;;;;;;;9.63;7.10;;;;;;;;;;5003088;28;20052;-75
2023/06/19 03:39:58;;;;;;;10.13;7.00;;;;;;;;;;5000911;28;20085;-75
2023/06/19 03:42:24;;;;;;;8.65;7.30;;;;;;;;;;5005087;28;20057;-75
2023/06/19 03:44:50;;;;;;;9.45;7.07;;;;;;;;;;5017726;28;20042;-75
2023/06/19 03:47:17;;;;;;;11.80;7.15;;;;;;;;;;5012077;28;20046;-74
2023/06/19 03:49:43;;;;;;;9.00;6.85;;;;;;;;;;5003485;28;20447;-74
2023/06/19 03:52:09;;;;;;;13.07;7.60;;;;;;;;;;5014909;28;20103;-74
2023/06/19 03:54:35;;;;;;;10.48;7.20;;;;;;;;;;4997579;28;20473;-74
2023/06/19 03:57:01;;;;;;;8.80;7.00;;;;;;;;;;4999679;28;20050;-74
2023/06/19 03:59:27;;;;;;;8.73;6.78;;;;;;;;;;5012507;28;20096;-75
2023/06/19 04:01:53;;;;;;;8.50;6.45;;;;;;;;;;4999712;28;20039;-75
2023/06/19 04:04:19;;;;;;;8.05;6.80;;;;;;;;;;5001881;28;20054;-75
2023/06/19 04:06:46;;;;;;;11.13;6.65;;;;;;;;;;5001905;28;20065;-75
2023/06/19 04:09:13;;;;;;;8.50;6.22;;;;;;;;;;5007809;28;20046;-74
2023/06/19 04:11:39;;;;;;;8.73;6.38;;;;;;;;;;4993694;28;20049;-74
2023/06/19 04:14:05;;;;;;;9.18;6.57;;;;;;;;;;4989477;28;20078;-74
2023/06/19 04:16:31;;;;;;;10.60;6.68;;;;;;;;;;5008037;28;20053;-73
2023/06/19 04:18:57;;;;;;;9.43;6.40;;;;;;;;;;5012143;28;20109;-74
2023/06/19 04:21:23;;;;;;;12.23;6.97;;;;;;;;;;4999202;28;20496;-75
2023/06/19 04:23:49;;;;;;;9.23;6.28;;;;;;;;;;5006302;28;20074;-73
2023/06/19 04:26:15;;;;;;;8.15;6.38;;;;;;;;;;5019531;28;20084;-74
2023/06/19 04:28:41;;;;;;;10.10;6.50;;;;;;;;;;5016058;28;20038;-74
2023/06/19 04:31:07;;;;;;;8.30;5.90;;;;;;;;;;5018296;28;20053;-74
2023/06/19 04:33:34;;;;;;;14.00;6.30;;;;;;;;;;5017751;28;20053;-75
2023/06/19 04:36:00;;;;;;;9.68;6.50;;;;;;;;;;5018406;28;20129;-75
2023/06/19 04:38:26;;;;;;;8.13;6.18;;;;;;;;;;5018243;28;20064;-75
2023/06/19 04:40:53;;;;;;;8.75;6.18;;;;;;;;;;5020010;28;20046;-74
2023/06/19 04:43:19;;;;;;;9.35;5.82;;;;;;;;;;5020444;28;20497;-75
2023/06/19 04:45:45;;;;;;;7.88;5.55;;;;;;;;;;5018893;28;20069;-75
2023/06/19 04:48:11;;;;;;;9.50;6.15;;;;;;;;;;5009095;28;20504;-74
2023/06/19 04:50:37;;;;;;;7.88;5.88;;;;;;;;;;4999279;28;20049;-74
2023/06/19 04:53:03;;;;;;;7.38;5.22;;;;;;;;;;5006663;28;20075;-75
2023/06/19 04:55:32;;;;;;;8.95;5.40;;;;;;;;;;4998485;28;20057;-75
2023/06/19 04:57:59;;;;;;;9.75;5.13;;;;;;;;;;4985643;28;20074;-75
2023/06/19 05:00:25;;;;;;;7.70;5.13;;;;;;;;;;5002058;28;20046;-74
2023/06/19 05:02:51;;;;;;;9.00;4.95;;;;;;;;;;5005160;28;20042;-74
2023/06/19 05:05:17;;;;;;;6.25;4.35;;;;;;;;;;5015414;28;20073;-76
2023/06/19 05:07:45;;;;;;;7.97;4.95;;;;;;;;;;5003674;28;20058;-74
2023/06/19 05:10:11;;;;;;;7.57;4.30;;;;;;;;;;5003045;28;20046;-76
2023/06/19 05:12:37;;;;;;;6.38;4.10;;;;;;;;;;5008294;28;20042;-74
2023/06/19 05:15:03;;;;;;;7.40;4.18;;;;;;;;;;5010703;28;20056;-74
2023/06/19 05:17:29;;;;;;;7.15;4.10;;;;;;;;;;5009074;28;20046;-75
2023/06/19 05:19:55;;;;;;;7.70;4.40;;;;;;;;;;5010422;28;20046;-74
2023/06/19 05:22:23;;;;;;;6.47;3.90;;;;;;;;;;5003600;28;20492;-74
2023/06/19 05:24:49;;;;;;;7.43;3.60;;;;;;;;;;5002904;28;20086;-76
2023/06/19 05:27:15;;;;;;;6.72;3.72;;;;;;;;;;5014218;28;20053;-74
2023/06/19 05:29:41;;;;;;;8.23;4.20;;;;;;;;;;5011646;28;20129;-74
2023/06/19 05:32:08;;;;;;;6.50;3.78;;;;;;;;;;5005563;28;20046;-75
2023/06/19 05:34:34;;;;;;;9.13;3.83;;;;;;;;;;5001063;28;20142;-74
2023/06/19 05:37:03;;;;;;;6.53;3.58;;;;;;;;;;5001431;28;20086;-76
2023/06/19 05:39:29;;;;;;;10.10;3.50;;;;;;;;;;5017136;28;20042;-75
2023/06/19 05:41:55;;;;;;;6.32;3.58;;;;;;;;;;5008324;28;20110;-75
2023/06/19 05:44:21;;;;;;;8.07;3.60;;;;;;;;;;5015861;28;20042;-76
2023/06/19 05:46:47;;;;;;;7.72;4.00;;;;;;;;;;5013280;28;20822;-75
2023/06/19 05:49:13;;;;;;;6.82;3.65;;;;;;;;;;5005304;28;20050;-75
2023/06/19 05:51:39;;;;;;;5.80;3.67;;;;;;;;;;5006482;28;20052;-73
2023/06/19 05:54:05;;;;;;;10.02;4.78;;;;;;;;;;5004254;28;20061;-74
2023/06/19 05:56:32;;;;;;;8.23;3.80;;;;;;;;;;5004925;28;20042;-73
2023/06/19 05:58:59;;;;;;;7.85;3.63;;;;;;;;;;5005766;28;20447;-74
2023/06/19 06:01:29;;;;;;;7.25;3.85;;;;;;;;;;4997378;28;20043;-73
2023/06/19 06:03:55;;;;;;;7.68;4.07;;;;;;;;;;5008917;28;20081;-74
2023/06/19 06:06:23;;;;;;;7.32;3.90;;;;;;;;;;5000581;28;20401;-74
2023/06/19 06:08:49;;;;;;;6.78;3.75;;;;;;;;;;5000625;28;20062;-74
2023/06/19 06:11:15;;;;;;;6.55;3.40;;;;;;;;;;5000832;28;20093;-74
2023/06/19 06:13:41;;;;;;;5.63;3.70;;;;;;;;;;5001888;28;20065;-73
2023/06/19 06:16:07;;;;;;;8.38;3.70;;;;;;;;;;5005521;28;20053;-74
2023/06/19 06:18:33;;;;;;;6.65;3.70;;;;;;;;;;5019487;28;20038;-73
2023/06/19 06:20:59;;;;;;;5.80;3.33;;;;;;;;;;5023483;28;20045;-74
2023/06/19 06:23:25;;;;;;;6.38;3.65;;;;;;;;;;5020979;28;20932;-73
2023/06/19 06:25:51;;;;;;;8.10;3.67;;;;;;;;;;5010800;28;20046;-73
2023/06/19 06:28:17;;;;;;;14.60;3.92;;;;;;;;;;5000764;28;20088;-73
2023/06/19 06:30:44;;;;;;;6.57;3.30;;;;;;;;;;5002017;28;20121;-73
2023/06/19 06:33:10;;;;;;;6.25;3.50;;;;;;;;;;5013065;28;20119;-73
2023/06/19 06:35:36;;;;;;;6.07;3.58;;;;;;;;;;5016541;28;20064;-74
2023/06/19 06:38:02;;;;;;;7.78;3.42;;;;;;;;;;5021793;28;20095;-73
2023/06/19 06:40:28;;;;;;;6.40;3.20;;;;;;;;;;5019929;28;20041;-73
2023/06/19 06:42:54;;;;;;;8.20;3.72;;;;;;;;;;5020282;28;20119;-73
2023/06/19 06:45:20;;;;;;;7.40;3.20;;;;;;;;;;5020270;28;20136;-72
2023/06/19 06:47:46;;;;;;;7.05;3.38;;;;;;;;;;5005139;28;20077;-74
2023/06/19 06:50:12;;;;;;;5.72;3.20;;;;;;;;;;5006237;28;20100;-73
2023/06/19 06:52:38;;;;;;;5.80;3.53;;;;;;;;;;5012614;28;20042;-73
2023/06/19 06:55:05;;;;;;;8.05;3.97;;;;;;;;;;5016379;28;20037;-73
2023/06/19 06:57:31;;;;;;;5.50;3.90;;;;;;;;;;5007096;28;20050;-72
2023/06/19 06:59:57;;;;;;;7.35;4.60;;;;;;;;;;5003237;28;20043;-73
2023/06/19 07:02:23;;;;;;;7.68;4.45;;;;;;;;;;5008682;28;20423;-73
2023/06/19 07:04:50;;;;;;;6.75;4.25;;;;;;;;;;5016327;28;20046;-73
2023/06/19 07:07:16;;;;;;;7.80;4.30;;;;;;;;;;5011719;28;20042;-72
2023/06/19 07:09:42;;;;;;;9.77;4.30;;;;;;;;;;5012034;28;20046;-74
2023/06/19 07:12:08;;;;;;;9.63;4.05;;;;;;;;;;5006822;28;20052;-74
2023/06/19 07:14:34;;;;;;;7.45;4.13;;;;;;;;;;5010108;28;20052;-74
2023/06/19 07:17:00;;;;;;;10.18;5.10;;;;;;;;;;5017059;28;20053;-74
2023/06/19 07:19:26;;;;;;;9.43;5.40;;;;;;;;;;5001023;28;20073;-72
2023/06/19 07:21:52;;;;;;;7.40;5.20;;;;;;;;;;5010005;28;20104;-73
2023/06/19 07:24:19;;;;;;;9.38;5.40;;;;;;;;;;5017332;28;20046;-73
2023/06/19 07:26:47;;;;;;;6.88;5.22;;;;;;;;;;5011795;28;20444;-75
2023/06/19 07:29:13;;;;;;;12.43;6.25;;;;;;;;;;4999596;28;20085;-74
2023/06/19 07:31:39;;;;;;;8.20;5.38;;;;;;;;;;5003040;28;20092;-74
2023/06/19 07:34:05;;;;;;;9.77;6.10;;;;;;;;;;5010326;28;20141;-74
2023/06/19 07:36:31;;;;;;;7.40;5.90;;;;;;;;;;5009475;28;20053;-74
2023/06/19 07:38:57;;;;;;;8.52;5.72;;;;;;;;;;5008836;28;20684;-73
2023/06/19 07:41:23;;;;;;;8.05;5.63;;;;;;;;;;5005868;28;20050;-74
2023/06/19 07:43:49;;;;;;;10.77;5.82;;;;;;;;;;5011368;28;20042;-72
2023/06/19 07:46:16;;;;;;;8.35;5.80;;;;;;;;;;5014915;28;21175;-74
2023/06/19 07:48:43;;;;;;;9.38;5.45;;;;;;;;;;5011884;28;20049;-73
2023/06/19 07:51:10;;;;;;;7.47;5.60;;;;;;;;;;5009520;28;20049;-74
2023/06/19 07:53:36;;;;;;;11.00;5.35;;;;;;;;;;5021136;28;20119;-75
2023/06/19 07:56:02;;;;;;;10.23;5.82;;;;;;;;;;5017696;28;20732;-75
2023/06/19 07:58:29;;;;;;;8.57;5.40;;;;;;;;;;5002838;28;20046;-72
2023/06/19 08:00:55;;;;;;;8.45;5.45;;;;;;;;;;4995063;28;20047;-73
2023/06/19 08:03:22;;;;;;;7.03;4.80;;;;;;;;;;5006719;28;20042;-72
2023/06/19 08:05:48;;;;;;;6.53;4.78;;;;;;;;;;5003933;28;20495;-72
2023/06/19 08:08:14;;;;;;;7.47;5.40;;;;;;;;;;5010296;28;20065;-73
2023/06/19 08:10:40;;;;;;;8.13;4.97;;;;;;;;;;5002450;28;20549;-73
2023/06/19 08:13:07;;;;;;;7.07;4.80;;;;;;;;;;5012714;28;20046;-73
2023/06/19 08:15:33;;;;;;;8.15;5.60;;;;;;;;;;5003411;28;20445;-72
2023/06/19 08:17:59;;;;;;;7.32;5.07;;;;;;;;;;5013242;28;20054;-73
2023/06/19 08:20:25;;;;;;;7.80;4.88;;;;;;;;;;4997706;28;20038;-74
2023/06/19 08:22:51;;;;;;;7.05;5.15;;;;;;;;;;5002608;28;20046;-72
2023/06/19 08:25:17;;;;;;;7.35;5.38;;;;;;;;;;5003018;28;20047;-74
2023/06/19 08:27:45;;;;;;;7.32;5.05;;;;;;;;;;4998818;28;20523;-75
2023/06/19 08:30:11;;;;;;;8.77;5.13;;;;;;;;;;5006730;28;20101;-75
2023/06/19 08:32:37;;;;;;;8.88;5.25;;;;;;;;;;5006740;28;20472;-74
2023/06/19 08:35:04;;;;;;;8.75;5.10;;;;;;;;;;5001027;28;20050;-74
2023/06/19 08:37:30;;;;;;;7.10;5.57;;;;;;;;;;5003710;28;20520;-73
2023/06/19 08:39:56;;;;;;;6.93;5.70;;;;;;;;;;5000985;28;20536;-73
2023/06/19 08:42:22;;;;;;;8.95;6.22;;;;;;;;;;5000405;28;20053;-74
2023/06/19 08:44:49;;;;;;;7.78;6.05;;;;;;;;;;5004958;28;20051;-73
2023/06/19 08:47:15;;;;;;;9.23;7.28;;;;;;;;;;4997697;28;20050;-74
2023/06/19 08:49:41;;;;;;;9.48;7.30;;;;;;;;;;5015651;28;20084;-73
2023/06/19 08:52:08;;;;;;;9.98;7.93;;;;;;;;;;5019970;28;20045;-74
2023/06/19 08:54:34;;;;;;;10.43;8.13;;;;;;;;;;5018824;28;20129;-73
2023/06/19 08:57:03;;;;;;;9.05;8.15;;;;;;;;;;5019154;28;20082;-73
2023/06/19 08:59:31;;;;;;;14.65;7.78;;;;;;;;;;4985272;28;20042;-73
2023/06/19 09:01:58;;;;;;;10.25;7.97;;;;;;;;;;4999555;28;20098;-73
2023/06/19 09:04:28;;;;;;;11.68;7.78;;;;;;;;;;5016072;28;20129;-74
2023/06/19 09:06:58;;;;;;;8.77;7.88;;;;;;;;;;4997919;28;20133;-73
2023/06/19 09:09:25;;;;;;;9.10;7.73;;;;;;;;;;4999635;28;20416;-74
2023/06/19 09:12:05;;;;;;;8.65;7.45;;;;;;;;;;5002918;28;20042;-73
2023/06/19 09:14:40;;;;;;;9.32;8.00;;;;;;;;;;5001384;28;20130;-74
2023/06/19 09:17:08;;;;;;;9.32;7.15;;;;;;;;;;5003572;28;20489;-73
2023/06/19 09:19:34;;;;;;;13.50;8.13;;;;;;;;;;5007822;28;20046;-74
2023/06/19 09:22:04;;;;;;;10.13;8.05;;;;;;;;;;5005652;28;20062;-74
2023/06/19 09:24:41;;;;;;;11.98;9.32;;;;;;;;;;5017087;28;20053;-73
2023/06/19 09:27:13;;;;;;;10.90;8.52;;;;;;;;;;5002113;28;20107;-73
2023/06/19 09:29:40;;;;;;;12.32;8.45;;;;;;;;;;5000385;28;20106;-73
2023/06/19 09:32:15;;;;;;;12.60;8.18;;;;;;;;;;5006498;28;20101;-73
2023/06/19 09:34:41;;;;;;;8.70;7.80;;;;;;;;;;4996689;28;20053;-74
2023/06/19 09:37:08;;;;;;;8.23;7.25;;;;;;;;;;5004222;28;20054;-73
2023/06/19 09:39:35;;;;;;;9.60;7.38;;;;;;;;;;5015799;28;20038;-74
2023/06/19 09:42:03;;;;;;;9.27;7.15;;;;;;;;;;5010948;28;20503;-73
2023/06/19 09:44:31;;;;;;;8.35;6.03;;;;;;;;;;5017235;28;20048;-73
2023/06/19 09:46:59;;;;;;;11.13;4.78;;;;;;;;;;5000941;28;20081;-73
2023/06/19 09:49:28;;;;;;;12.75;4.78;;;;;;;;;;5018889;28;20053;-73
2023/06/19 09:51:55;;;;;;;7.57;4.03;;;;;;;;;;5000281;28;20046;-74
2023/06/19 09:54:22;;;;;;;6.32;4.30;;;;;;;;;;5013367;28;20119;-73
2023/06/19 09:56:50;;;;;;;6.88;4.45;;;;;;;;;;5010470;28;20054;-73
2023/06/19 09:59:18;;;;;;;7.30;4.63;;;;;;;;;;5006871;28;20101;-73
2023/06/19 10:01:45;;;;;;;7.30;5.15;;;;;;;;;;5009755;28;20045;-73
2023/06/19 10:04:11;;;;;;;9.88;5.43;;;;;;;;;;5014511;28;20046;-74
2023/06/19 10:06:47;;;;;;;6.75;4.97;;;;;;;;;;5011026;28;20611;-72
2023/06/19 10:09:17;;;;;;;12.10;5.90;;;;;;;;;;5005443;28;20531;-72
2023/06/19 10:11:47;;;;;;;9.30;6.07;;;;;;;;;;5008447;28;20054;-69
2023/06/19 10:14:13;;;;;;;9.70;5.47;;;;;;;;;;4994565;28;20448;-70
2023/06/19 10:16:41;;;;;;;7.47;4.78;;;;;;;;;;4995342;28;20473;-71
2023/06/19 10:19:14;;;;;;;11.10;5.28;;;;;;;;;;5003019;28;20046;-71
2023/06/19 10:21:48;;;;;;;8.23;5.10;;;;;;;;;;4999698;28;20046;-69
2023/06/19 10:24:15;;;;;;;11.40;5.93;;;;;;;;;;4995627;28;20073;-71
2023/06/19 10:26:41;;;;;;;8.95;5.22;;;;;;;;;;4993753;28;20050;-70
2023/06/19 10:29:17;;;;;;;8.43;5.60;;;;;;;;;;4994885;28;20062;-70
2023/06/19 10:31:45;;;;;;;8.05;5.50;;;;;;;;;;5003775;28;20042;-71
2023/06/19 10:34:11;;;;;;;10.55;5.90;;;;;;;;;;5006046;28;20093;-69
2023/06/19 10:36:38;;;;;;;8.82;5.90;;;;;;;;;;5005138;28;20060;-71
2023/06/19 10:39:04;;;;;;;8.77;5.80;;;;;;;;;;5002365;28;20042;-70
2023/06/19 10:41:31;;;;;;;9.63;7.13;;;;;;;;;;5007436;28;20050;-71
2023/06/19 10:44:08;;;;;;;9.55;6.20;;;;;;;;;;4994216;28;20050;-70
2023/06/19 10:46:35;;;;;;;10.40;7.20;;;;;;;;;;4999207;28;20043;-71
2023/06/19 10:49:04;;;;;;;9.25;7.30;;;;;;;;;;5004937;28;20381;-71
2023/06/19 10:51:30;;;;;;;10.95;7.40;;;;;;;;;;5006657;28;20046;-71
2023/06/19 10:53:57;;;;;;;12.07;8.35;;;;;;;;;;5001506;28;20069;-69
2023/06/19 10:56:24;;;;;;;13.52;8.98;;;;;;;;;;4997286;28;20124;-70
2023/06/19 10:58:57;;;;;;;10.57;7.85;;;;;;;;;;5002296;28;20134;-71
2023/06/19 11:01:23;;;;;;;11.10;7.70;;;;;;;;;;5002770;28;20057;-70
2023/06/19 11:03:51;;;;;;;10.95;7.90;;;;;;;;;;5001955;28;20051;-71
2023/06/19 11:06:20;;;;;;;13.52;7.35;;;;;;;;;;4996298;28;20397;-71
2023/06/19 11:08:52;;;;;;;9.52;6.90;;;;;;;;;;5000447;28;20058;-70
2023/06/19 11:11:20;;;;;;;7.85;5.50;;;;;;;;;;4999487;28;20136;-71
2023/06/19 11:13:46;;;;;;;8.48;5.10;;;;;;;;;;5008135;28;20062;-69
2023/06/19 11:16:14;;;;;;;9.18;6.43;;;;;;;;;;5013508;28;20423;-72
2023/06/19 11:18:41;;;;;;;9.05;5.65;;;;;;;;;;5010952;28;20053;-69
2023/06/19 11:21:07;;;;;;;7.85;5.40;;;;;;;;;;4996701;28;20046;-70
2023/06/19 11:23:33;;;;;;;8.57;4.85;;;;;;;;;;5000374;28;20045;-70
2023/06/19 11:26:02;;;;;;;8.13;4.88;;;;;;;;;;4996920;28;20113;-71
2023/06/19 11:28:29;;;;;;;8.57;4.53;;;;;;;;;;4997184;28;20468;-71
2023/06/19 11:30:59;;;;;;;8.30;4.40;;;;;;;;;;5015543;28;20081;-70
2023/06/19 11:33:25;;;;;;;8.20;4.47;;;;;;;;;;5001077;28;20038;-69
2023/06/19 11:35:52;;;;;;;6.97;4.57;;;;;;;;;;5001228;28;20061;-70
2023/06/19 11:38:19;;;;;;;9.95;5.03;;;;;;;;;;5007298;28;20156;-70
2023/06/19 11:40:45;;;;;;;6.13;4.40;;;;;;;;;;4997072;28;20570;-69
2023/06/19 11:43:12;;;;;;;7.63;4.60;;;;;;;;;;4995404;28;20038;-70
2023/06/19 11:45:51;;;;;;;9.60;5.80;;;;;;;;;;4992795;28;20054;-71
2023/06/19 11:48:26;;;;;;;7.72;4.95;;;;;;;;;;5004523;28;20045;-70
2023/06/19 11:50:53;;;;;;;8.88;5.50;;;;;;;;;;4995792;28;20042;-70
2023/06/19 11:53:20;;;;;;;8.82;5.53;;;;;;;;;;4998508;28;20523;-71
2023/06/19 11:55:46;;;;;;;9.15;5.50;;;;;;;;;;5001555;28;20041;-73
2023/06/19 11:58:12;;;;;;;12.07;6.07;;;;;;;;;;4998903;28;20130;-70
2023/06/19 12:00:38;;;;;;;7.22;5.72;;;;;;;;;;5008615;28;20054;-71
2023/06/19 12:03:05;;;;;;;9.48;5.78;;;;;;;;;;5004549;28;20056;-71
2023/06/19 12:05:31;;;;;;;8.30;5.60;;;;;;;;;;4998245;28;20065;-73
2023/06/19 12:07:57;;;;;;;9.75;5.88;;;;;;;;;;5002851;28;20156;-71
2023/06/19 12:10:24;;;;;;;10.68;5.97;;;;;;;;;;5000843;28;20041;-71
2023/06/19 12:12:50;;;;;;;15.45;6.45;;;;;;;;;;5004288;28;20054;-72
2023/06/19 12:15:16;;;;;;;10.52;6.47;;;;;;;;;;4996644;28;20053;-71
2023/06/19 12:17:42;;;;;;;13.02;6.20;;;;;;;;;;5003636;28;20077;-70
2023/06/19 12:20:08;;;;;;;14.32;6.00;;;;;;;;;;5001620;28;20053;-71
2023/06/19 12:22:35;;;;;;;15.93;7.07;;;;;;;;;;5004071;28;20475;-70
2023/06/19 12:25:01;;;;;;;11.93;6.35;;;;;;;;;;4998383;28;20053;-71
2023/06/19 12:27:27;;;;;;;11.18;6.53;;;;;;;;;;5003026;28;20053;-71
2023/06/19 12:29:55;;;;;;;10.50;5.70;;;;;;;;;;4994945;28;20069;-72
2023/06/19 12:32:21;;;;;;;15.15;6.63;;;;;;;;;;4996174;28;20058;-72
2023/06/19 12:34:47;;;;;;;23.52;6.30;;;;;;;;;;4997721;28;20057;-73
2023/06/19 12:37:17;;;;;;;11.57;6.65;;;;;;;;;;4996480;28;20034;-72
2023/06/19 12:39:43;;;;;;;15.15;6.60;;;;;;;;;;5000714;28;20034;-69
2023/06/19 12:42:13;;;;;;;11.75;6.50;;;;;;;;;;5014879;28;20033;-70
2023/06/19 12:44:44;;;;;;;12.55;6.22;;;;;;;;;;5003934;28;20045;-72
2023/06/19 12:47:10;;;;;;;;;;;;;;;;;;5007925;28;20038;-70
2023/06/19 12:49:36;;;;;;;17.85;6.75;;;;;;;;;;5001145;28;19928;-73
2023/06/19 12:52:02;;;;;;;12.05;7.28;;;;;;;;;;5012421;28;20046;-70
2023/06/19 12:54:28;;;;;;;11.32;6.57;;;;;;;;;;5011100;28;20050;-71
2023/06/19 12:56:54;;;;;;;18.73;6.32;;;;;;;;;;4995962;28;20133;-71
2023/06/19 12:59:20;;;;;;;19.35;7.88;;;;;;;;;;4995525;28;20078;-71
2023/06/19 13:01:46;;;;;;;21.73;7.22;;;;;;;;;;5012650;28;20049;-71
2023/06/19 13:04:13;;;;;;;17.38;7.53;;;;;;;;;;5001764;28;20046;-70
2023/06/19 13:06:39;;;;;;;15.50;7.82;;;;;;;;;;4999501;28;20586;-70
2023/06/19 13:09:06;;;;;;;13.82;6.38;;;;;;;;;;4997545;28;20046;-70
2023/06/19 13:11:34;;;;;;;10.88;6.82;;;;;;;;;;5001479;28;20050;-69
2023/06/19 13:14:00;;;;;;;9.30;6.68;;;;;;;;;;4995931;28;20073;-68
2023/06/19 13:16:26;;;;;;;10.25;7.15;;;;;;;;;;5003561;28;20046;-69
2023/06/19 13:18:52;;;;;;;13.68;6.50;;;;;;;;;;5008025;28;20050;-70
2023/06/19 13:21:18;;;;;;;9.38;6.68;;;;;;;;;;4997871;28;20046;-70
2023/06/19 13:23:44;;;;;;;11.57;6.85;;;;;;;;;;4995316;28;20089;-70
2023/06/19 13:26:11;;;;;;;13.70;7.60;;;;;;;;;;5006830;28;20073;-71
2023/06/19 13:28:37;;;;;;;10.25;6.97;;;;;;;;;;5008193;28;20503;-70
2023/06/19 13:31:03;;;;;;;9.77;7.38;;;;;;;;;;4995872;28;20057;-70
2023/06/19 13:33:29;;;;;;;12.30;7.53;;;;;;;;;;4998958;28;20038;-70
2023/06/19 13:35:55;;;;;;;13.20;6.82;;;;;;;;;;5007291;28;20077;-68
2023/06/19 13:38:21;;;;;;;14.77;8.50;;;;;;;;;;5009352;28;20046;-70
2023/06/19 13:40:47;;;;;;;15.52;7.50;;;;;;;;;;5002967;28;20045;-70
2023/06/19 13:43:14;;;;;;;10.60;7.40;;;;;;;;;;5010098;28;20049;-69
2023/06/19 13:45:40;;;;;;;13.73;7.47;;;;;;;;;;4991795;28;20414;-71
2023/06/19 13:48:07;;;;;;;13.10;6.70;;;;;;;;;;4995748;28;20085;-72
2023/06/19 13:50:33;;;;;;;12.23;6.97;;;;;;;;;;4994094;28;20129;-74
2023/06/19 13:52:59;;;;;;;10.23;5.82;;;;;;;;;;4995022;28;20104;-72
2023/06/19 13:55:25;;;;;;;12.98;7.47;;;;;;;;;;4997419;28;20121;-68
2023/06/19 13:57:52;;;;;;;12.00;7.20;;;;;;;;;;4997777;28;20054;-71
2023/06/19 14:00:18;;;;;;;17.45;6.60;;;;;;;;;;4998060;28;20507;-70
2023/06/19 14:02:45;;;;;;;10.10;6.50;;;;;;;;;;4993547;28;20038;-70
2023/06/19 14:05:11;;;;;;;8.05;6.10;;;;;;;;;;4993870;28;20105;-70
2023/06/19 14:07:37;;;;;;;10.20;6.28;;;;;;;;;;4993624;28;20073;-71
2023/06/19 14:10:04;;;;;;;9.50;5.97;;;;;;;;;;4994445;28;20050;-71
2023/06/19 14:12:30;;;;;;;10.35;6.05;;;;;;;;;;4994972;28;20046;-70
2023/06/19 14:14:57;;;;;;;10.52;6.53;;;;;;;;;;5008344;28;20496;-72
2023/06/19 14:17:23;;;;;;;8.60;5.70;;;;;;;;;;5008920;28;20037;-71
2023/06/19 14:19:55;;;;;;;11.98;6.22;;;;;;;;;;5003017;28;20050;-70
2023/06/19 14:22:21;;;;;;;8.65;5.70;;;;;;;;;;4992748;28;20050;-71
2023/06/19 14:24:47;;;;;;;10.40;5.75;;;;;;;;;;5000909;28;20054;-71
2023/06/19 14:27:14;;;;;;;11.35;5.90;;;;;;;;;;5001337;28;20049;-71
2023/06/19 14:29:40;;;;;;;10.35;5.75;;;;;;;;;;5011605;28;20057;-71
2023/06/19 14:32:06;;;;;;;12.32;5.20;;;;;;;;;;4998113;28;20046;-70
2023/06/19 14:34:32;;;;;;;8.52;5.50;;;;;;;;;;4980392;28;20054;-72
2023/06/19 14:36:58;;;;;;;9.60;5.80;;;;;;;;;;4997754;28;20073;-72